Time;durP1;ratioP1;P1;durP2;ratioP2;P2;SDS_P1;SDS_P2;PMS_P1;PMS_P2;Temp;Humidity;BMP_temperature;BMP_pressure;BME280_temperature;BME280_humidity;BME280_pressure;Samples;Min_cycle;Max_cycle;Signal;HPM_P1;HPM_P2
2024/01/17 00:00:08;;;;;;;9.07;4.20;;;-8.50;99.90;;;;;;5056673;28;20021;-79
2024/01/17 00:02:34;;;;;;;9.05;3.75;;;-8.50;99.90;;;;;;5056747;28;20029;-78
2024/01/17 00:04:59;;;;;;;8.65;4.00;;;-8.50;99.90;;;;;;5051608;28;20113;-79
2024/01/17 00:07:25;;;;;;;11.27;5.30;;;-8.60;99.90;;;;;;5056476;28;20022;-78
2024/01/17 00:09:51;;;;;;;9.40;4.43;;;-8.70;99.90;;;;;;5038399;28;20116;-78
2024/01/17 00:12:17;;;;;;;9.90;3.80;;;-8.70;99.90;;;;;;5055177;28;20036;-78
2024/01/17 00:14:42;;;;;;;9.70;3.22;;;-8.70;99.90;;;;;;5055955;28;20523;-78
2024/01/17 00:17:08;;;;;;;7.28;3.60;;;-8.80;99.90;;;;;;5035947;28;20028;-78
2024/01/17 00:19:35;;;;;;;8.18;3.55;;;-8.70;99.90;;;;;;5035264;28;20029;-78
2024/01/17 00:22:00;;;;;;;11.60;5.13;;;-8.60;99.90;;;;;;5035642;28;20026;-79
2024/01/17 00:24:26;;;;;;;10.07;3.53;;;-8.50;99.90;;;;;;5034815;28;20033;-79
2024/01/17 00:26:52;;;;;;;9.88;4.05;;;-8.40;99.90;;;;;;5054247;28;20065;-79
2024/01/17 00:29:18;;;;;;;9.00;4.00;;;-8.40;99.90;;;;;;5054618;28;20033;-79
2024/01/17 00:31:44;;;;;;;8.68;3.05;;;-8.40;99.90;;;;;;5054738;28;20388;-79
2024/01/17 00:34:10;;;;;;;8.38;3.83;;;-8.30;99.90;;;;;;5055966;28;20017;-79
2024/01/17 00:36:35;;;;;;;10.07;4.90;;;-8.20;99.90;;;;;;5055768;28;20025;-79
2024/01/17 00:39:01;;;;;;;13.77;5.38;;;-8.20;99.90;;;;;;5056278;28;20032;-79
2024/01/17 00:41:27;;;;;;;10.85;4.63;;;-8.10;99.90;;;;;;5056599;28;20432;-79
2024/01/17 00:43:52;;;;;;;8.07;3.70;;;-8.10;99.90;;;;;;5055989;28;20033;-78
2024/01/17 00:46:18;;;;;;;10.57;3.92;;;-8.00;99.90;;;;;;5058276;28;20103;-79
2024/01/17 00:48:44;;;;;;;8.45;4.22;;;-8.00;99.90;;;;;;5059573;28;20051;-79
2024/01/17 00:51:09;;;;;;;7.80;4.10;;;-7.90;99.90;;;;;;5059871;28;20028;-79
2024/01/17 00:53:35;;;;;;;7.30;3.78;;;-7.90;99.90;;;;;;5058865;28;20040;-79
2024/01/17 00:56:01;;;;;;;6.70;3.22;;;-7.90;99.90;;;;;;5049017;28;20053;-79
2024/01/17 00:58:30;;;;;;;8.20;4.13;;;-7.90;99.90;;;;;;5038405;28;20030;-79
2024/01/17 01:00:56;;;;;;;7.25;3.70;;;-7.80;99.90;;;;;;5040159;28;20059;-79
2024/01/17 01:03:21;;;;;;;7.97;3.60;;;-7.80;99.90;;;;;;5057944;28;20087;-79
2024/01/17 01:05:47;;;;;;;8.73;4.00;;;-7.80;99.90;;;;;;5059042;28;20121;-79
2024/01/17 01:08:13;;;;;;;7.78;4.30;;;-7.80;99.90;;;;;;5058755;28;20339;-79
2024/01/17 01:10:38;;;;;;;9.50;4.00;;;-7.80;99.90;;;;;;5053386;28;20474;-79
2024/01/17 01:13:04;;;;;;;12.07;4.15;;;-7.80;99.90;;;;;;5039152;28;20044;-79
2024/01/17 01:15:30;;;;;;;9.82;4.15;;;-7.70;99.90;;;;;;5045367;28;20049;-79
2024/01/17 01:17:56;;;;;;;9.07;3.20;;;-7.70;99.90;;;;;;5059852;28;20104;-79
2024/01/17 01:20:21;;;;;;;6.80;3.72;;;-7.60;99.90;;;;;;5049002;28;20393;-79
2024/01/17 01:22:47;;;;;;;7.35;2.95;;;-7.50;99.90;;;;;;5038761;28;20459;-78
2024/01/17 01:25:13;;;;;;;9.68;3.38;;;-7.50;99.90;;;;;;5041823;28;20025;-79
2024/01/17 01:27:38;;;;;;;6.15;3.20;;;-7.50;99.90;;;;;;5059633;28;20056;-79
2024/01/17 01:30:04;;;;;;;7.55;3.65;;;-7.50;99.90;;;;;;5058412;28;20021;-79
2024/01/17 01:32:30;;;;;;;11.48;4.40;;;-7.50;99.90;;;;;;5044283;28;20032;-79
2024/01/17 01:34:56;;;;;;;11.07;4.32;;;-7.50;99.90;;;;;;5040643;28;20018;-79
2024/01/17 01:37:21;;;;;;;8.32;3.92;;;-7.60;99.90;;;;;;5058301;28;20040;-79
2024/01/17 01:39:47;;;;;;;8.57;4.00;;;-7.60;99.90;;;;;;5041750;28;20029;-79
2024/01/17 01:42:13;;;;;;;11.52;4.82;;;-7.60;99.90;;;;;;5041569;28;20083;-79
2024/01/17 01:44:38;;;;;;;9.95;4.28;;;-7.60;99.90;;;;;;5058721;28;20025;-79
2024/01/17 01:47:07;;;;;;;10.15;4.10;;;-7.60;99.90;;;;;;5058377;28;20029;-79
2024/01/17 01:49:32;;;;;;;9.80;4.38;;;-7.60;99.90;;;;;;5059366;28;20025;-79
2024/01/17 01:51:59;;;;;;;10.50;4.18;;;-7.60;99.90;;;;;;5059764;28;20032;-79
2024/01/17 01:54:25;;;;;;;9.27;3.55;;;-7.50;99.90;;;;;;5058029;28;20028;-79
2024/01/17 01:56:53;;;;;;;10.70;4.00;;;-7.50;99.90;;;;;;5023790;28;20026;-79
2024/01/17 01:59:20;;;;;;;7.78;3.10;;;-7.40;99.90;;;;;;5039000;28;20057;-79
2024/01/17 02:01:47;;;;;;;8.85;3.40;;;-7.30;99.90;;;;;;5047483;28;20033;-79
2024/01/17 02:04:15;;;;;;;8.38;3.67;;;-7.20;99.90;;;;;;5058232;28;20052;-78
2024/01/17 02:06:43;;;;;;;6.55;3.75;;;-7.20;99.90;;;;;;5056834;28;20106;-78
2024/01/17 02:09:09;;;;;;;7.50;3.50;;;-7.10;99.90;;;;;;5059040;28;20021;-78
2024/01/17 02:11:36;;;;;;;10.07;3.35;;;-7.00;99.90;;;;;;5057029;28;20029;-78
2024/01/17 02:14:01;;;;;;;7.72;4.03;;;-6.90;99.90;;;;;;5055917;28;20029;-78
2024/01/17 02:16:28;;;;;;;6.80;3.55;;;-6.90;99.90;;;;;;5053232;28;20516;-78
2024/01/17 02:18:54;;;;;;;6.63;3.78;;;-6.90;99.90;;;;;;5056962;28;20040;-79
2024/01/17 02:21:20;;;;;;;8.00;3.38;;;-6.90;99.90;;;;;;5038976;28;20032;-78
2024/01/17 02:23:52;;;;;;;7.70;4.35;;;-6.90;99.90;;;;;;5038413;28;20493;-78
2024/01/17 02:26:19;;;;;;;9.88;4.55;;;-6.90;99.90;;;;;;5031971;28;20448;-79
2024/01/17 02:28:44;;;;;;;8.32;4.03;;;-6.80;99.90;;;;;;5056812;28;20037;-79
2024/01/17 02:31:11;;;;;;;10.90;3.75;;;-6.80;99.90;;;;;;5057013;28;20138;-78
2024/01/17 02:33:37;;;;;;;10.73;4.10;;;-6.80;99.90;;;;;;5057888;28;20029;-79
2024/01/17 02:36:03;;;;;;;9.45;3.95;;;-6.80;99.90;;;;;;5058339;28;20123;-79
2024/01/17 02:38:29;;;;;;;8.45;4.35;;;-6.80;99.90;;;;;;5040316;28;20049;-79
2024/01/17 02:40:55;;;;;;;8.93;3.83;;;-6.90;99.90;;;;;;5057268;28;20029;-79
2024/01/17 02:43:20;;;;;;;8.75;4.10;;;-6.90;99.90;;;;;;5056980;28;20576;-78
2024/01/17 02:45:46;;;;;;;5.35;3.30;;;-6.90;99.90;;;;;;5056540;28;20610;-79
2024/01/17 02:48:12;;;;;;;7.88;3.78;;;-6.90;99.90;;;;;;5058130;28;20028;-79
2024/01/17 02:50:39;;;;;;;7.55;3.72;;;-6.90;99.90;;;;;;5056450;28;20033;-79
2024/01/17 02:53:06;;;;;;;7.03;3.47;;;-6.80;99.90;;;;;;5057205;28;20120;-79
2024/01/17 02:55:32;;;;;;;11.48;4.28;;;-6.80;99.90;;;;;;5054443;28;20454;-79
2024/01/17 02:58:00;;;;;;;14.25;4.03;;;-6.70;99.90;;;;;;5036885;28;20057;-79
2024/01/17 03:00:26;;;;;;;8.45;3.35;;;-6.60;99.90;;;;;;5037024;28;20033;-79
2024/01/17 03:02:51;;;;;;;7.32;3.60;;;-6.60;99.90;;;;;;5055413;28;20112;-79
2024/01/17 03:05:17;;;;;;;8.90;3.75;;;-6.60;99.90;;;;;;5057280;28;20060;-79
2024/01/17 03:07:43;;;;;;;8.93;3.58;;;-6.60;99.90;;;;;;5040309;28;20033;-79
2024/01/17 03:10:11;;;;;;;6.78;3.17;;;-6.50;99.90;;;;;;5057120;28;20029;-79
2024/01/17 03:12:37;;;;;;;11.15;4.63;;;-6.50;99.90;;;;;;5038499;28;20051;-79
2024/01/17 03:15:05;;;;;;;7.05;3.80;;;-6.50;99.90;;;;;;5038698;28;20634;-79
2024/01/17 03:17:31;;;;;;;7.22;4.03;;;-6.50;99.90;;;;;;5056215;28;20105;-79
2024/01/17 03:19:57;;;;;;;7.55;3.42;;;-6.50;99.90;;;;;;5048565;28;20491;-79
2024/01/17 03:22:22;;;;;;;8.05;3.72;;;-6.50;99.90;;;;;;5037474;28;20085;-79
2024/01/17 03:24:48;;;;;;;6.30;3.22;;;-6.50;99.90;;;;;;5036212;28;20034;-79
2024/01/17 03:27:14;;;;;;;5.78;3.33;;;-6.40;99.90;;;;;;5056228;28;20106;-79
2024/01/17 03:29:39;;;;;;;7.40;3.45;;;-6.40;99.90;;;;;;5056045;28;20025;-79
2024/01/17 03:32:05;;;;;;;8.00;2.97;;;-6.40;99.90;;;;;;5056224;28;20029;-78
2024/01/17 03:34:31;;;;;;;8.13;3.53;;;-6.30;99.90;;;;;;5056618;28;20032;-79
2024/01/17 03:36:57;;;;;;;5.60;3.17;;;-6.30;99.90;;;;;;5057562;28;20053;-79
2024/01/17 03:39:22;;;;;;;7.28;3.60;;;-6.30;99.90;;;;;;5056467;28;20024;-79
2024/01/17 03:41:48;;;;;;;7.55;3.50;;;-6.20;99.90;;;;;;5041039;28;20401;-79
2024/01/17 03:44:14;;;;;;;9.32;3.22;;;-6.20;99.90;;;;;;5057352;28;20463;-79
2024/01/17 03:46:40;;;;;;;7.95;3.45;;;-6.20;99.90;;;;;;5053205;28;20040;-79
2024/01/17 03:49:05;;;;;;;6.68;3.53;;;-6.20;99.90;;;;;;5055628;28;20378;-79
2024/01/17 03:51:31;;;;;;;8.90;3.58;;;-6.10;99.90;;;;;;5055510;28;20047;-79
2024/01/17 03:53:57;;;;;;;7.78;3.83;;;-6.10;99.90;;;;;;5057514;28;20079;-79
2024/01/17 03:56:23;;;;;;;7.72;3.60;;;-6.10;99.90;;;;;;5045796;28;20033;-79
2024/01/17 03:58:49;;;;;;;6.25;3.38;;;-6.00;99.90;;;;;;5036141;28;20123;-79
2024/01/17 04:01:15;;;;;;;7.10;3.50;;;-6.00;99.90;;;;;;5040304;28;20028;-79
2024/01/17 04:03:40;;;;;;;6.68;3.90;;;-6.00;99.90;;;;;;5057352;28;20495;-79
2024/01/17 04:06:06;;;;;;;6.18;3.40;;;-5.90;99.90;;;;;;5055803;28;20025;-79
2024/01/17 04:08:32;;;;;;;12.00;5.00;;;-5.90;99.90;;;;;;5057190;28;20025;-79
2024/01/17 04:10:58;;;;;;;10.60;5.00;;;-6.00;99.90;;;;;;5038879;28;20029;-79
2024/01/17 04:13:24;;;;;;;11.38;5.60;;;-6.00;99.90;;;;;;5055733;28;20059;-79
2024/01/17 04:15:49;;;;;;;13.90;4.97;;;-5.90;99.90;;;;;;5044182;28;20024;-79
2024/01/17 04:18:16;;;;;;;10.48;4.60;;;-5.90;99.90;;;;;;5051928;28;20037;-79
2024/01/17 04:20:42;;;;;;;9.07;4.00;;;-5.90;99.90;;;;;;5040919;28;20025;-79
2024/01/17 04:23:08;;;;;;;8.35;3.83;;;-5.90;99.90;;;;;;5036918;28;20057;-79
2024/01/17 04:25:35;;;;;;;8.30;3.83;;;-5.90;99.90;;;;;;5034542;28;20025;-79
2024/01/17 04:28:08;;;;;;;5.97;3.15;;;-5.80;99.90;;;;;;5016207;28;20125;-79
2024/01/17 04:30:34;;;;;;;6.30;3.45;;;-5.80;99.90;;;;;;5015710;28;20513;-79
2024/01/17 04:33:03;;;;;;;8.77;3.60;;;-5.80;99.90;;;;;;5054176;28;20025;-79
2024/01/17 04:35:29;;;;;;;7.22;3.53;;;-5.80;99.90;;;;;;5055295;28;20025;-79
2024/01/17 04:37:54;;;;;;;5.90;2.90;;;-5.80;99.90;;;;;;5038404;28;20453;-78
2024/01/17 04:40:21;;;;;;;6.97;3.42;;;-5.80;99.90;;;;;;5055218;28;20033;-79
2024/01/17 04:42:48;;;;;;;7.78;3.33;;;-5.80;99.90;;;;;;5056082;28;20017;-80
2024/01/17 04:45:17;;;;;;;5.18;2.80;;;-5.80;99.90;;;;;;5051603;28;20092;-78
2024/01/17 04:47:43;;;;;;;5.68;3.00;;;-5.80;99.90;;;;;;5055655;28;20112;-78
2024/01/17 04:50:12;;;;;;;7.35;3.53;;;-5.80;99.90;;;;;;5056188;28;20025;-78
2024/01/17 04:52:38;;;;;;;6.80;3.92;;;-5.80;99.90;;;;;;5053710;28;20051;-78
2024/01/17 04:55:04;;;;;;;7.00;3.40;;;-5.80;99.90;;;;;;5054780;28;20033;-78
2024/01/17 04:57:30;;;;;;;6.30;3.33;;;-5.80;99.90;;;;;;5018465;28;20021;-78
2024/01/17 04:59:56;;;;;;;7.78;3.90;;;-5.70;99.90;;;;;;5034731;28;20049;-78
2024/01/17 05:02:22;;;;;;;5.65;3.50;;;-5.70;99.90;;;;;;5031571;28;20029;-78
2024/01/17 05:04:49;;;;;;;7.00;3.70;;;-5.70;99.90;;;;;;5038295;28;20481;-80
2024/01/17 05:07:16;;;;;;;7.45;3.55;;;-5.70;99.90;;;;;;5054128;28;20040;-79
2024/01/17 05:09:42;;;;;;;7.78;3.95;;;-5.70;99.90;;;;;;5021343;28;20052;-79
2024/01/17 05:12:08;;;;;;;7.78;4.40;;;-5.70;99.90;;;;;;5019161;28;20117;-78
2024/01/17 05:14:34;;;;;;;12.27;6.20;;;-5.60;99.90;;;;;;5019413;28;20465;-79
2024/01/17 05:17:02;;;;;;;15.45;7.80;;;-5.60;99.90;;;;;;5048521;28;20470;-78
2024/01/17 05:19:27;;;;;;;17.35;8.02;;;-5.60;99.90;;;;;;5033620;28;20528;-78
2024/01/17 05:21:53;;;;;;;15.82;6.93;;;-5.60;99.90;;;;;;5017936;28;20030;-77
2024/01/17 05:24:22;;;;;;;12.00;6.68;;;-5.60;99.90;;;;;;5016814;28;20037;-78
2024/01/17 05:26:48;;;;;;;13.13;4.80;;;-5.50;99.90;;;;;;5046255;28;20159;-77
2024/01/17 05:29:14;;;;;;;12.32;5.53;;;-5.50;99.90;;;;;;5053241;28;20029;-78
2024/01/17 05:31:40;;;;;;;12.73;7.32;;;-5.50;99.90;;;;;;5054662;28;20036;-78
2024/01/17 05:34:07;;;;;;;13.52;6.80;;;-5.50;99.90;;;;;;5056913;28;20025;-78
2024/01/17 05:36:39;;;;;;;18.40;7.50;;;-5.50;99.90;;;;;;5057951;28;20091;-78
2024/01/17 05:39:04;;;;;;;14.40;6.35;;;-5.50;99.90;;;;;;5056635;28;20033;-78
2024/01/17 05:41:31;;;;;;;20.08;9.57;;;-5.50;99.90;;;;;;5040626;28;20397;-78
2024/01/17 05:43:58;;;;;;;38.67;21.33;;;-5.40;99.90;;;;;;5057349;28;20056;-79
2024/01/17 05:46:24;;;;;;;29.88;14.25;;;-5.40;99.90;;;;;;5011087;28;20052;-78
2024/01/17 05:48:50;;;;;;;26.08;13.20;;;-5.40;99.90;;;;;;5021162;28;20432;-79
2024/01/17 05:51:19;;;;;;;21.52;10.15;;;-5.30;99.90;;;;;;5039241;28;20036;-79
2024/01/17 05:53:44;;;;;;;17.00;8.63;;;-5.30;99.90;;;;;;5038637;28;20030;-78
2024/01/17 05:56:10;;;;;;;12.05;5.68;;;-5.30;99.90;;;;;;5045722;28;20405;-79
2024/01/17 05:58:38;;;;;;;9.23;4.57;;;-5.20;99.90;;;;;;5042157;28;20111;-79
2024/01/17 06:01:04;;;;;;;8.98;4.45;;;-5.20;99.90;;;;;;5057968;28;20119;-79
2024/01/17 06:03:30;;;;;;;7.13;3.88;;;-5.30;99.90;;;;;;5058573;28;20078;-79
2024/01/17 06:05:56;;;;;;;7.80;3.97;;;-5.30;99.90;;;;;;5063699;28;20455;-79
2024/01/17 06:08:22;;;;;;;6.95;3.60;;;-5.20;99.90;;;;;;5061223;28;20122;-79
2024/01/17 06:10:47;;;;;;;51.83;26.25;;;-5.20;99.90;;;;;;5024192;28;20048;-79
2024/01/17 06:13:13;;;;;;;53.45;20.52;;;-5.20;99.90;;;;;;5043666;28;20533;-79
2024/01/17 06:15:39;;;;;;;58.38;24.52;;;-5.20;99.90;;;;;;5056084;28;20462;-79
2024/01/17 06:18:05;;;;;;;34.55;15.20;;;-5.20;99.90;;;;;;5059375;28;20036;-78
2024/01/17 06:20:36;;;;;;;20.63;8.82;;;-5.20;99.90;;;;;;5058568;28;20040;-79
2024/01/17 06:23:02;;;;;;;15.25;7.18;;;-5.20;99.90;;;;;;5025117;28;20040;-79
2024/01/17 06:25:28;;;;;;;16.85;7.47;;;-5.20;99.90;;;;;;5040986;28;20397;-79
2024/01/17 06:27:53;;;;;;;12.27;5.95;;;-5.20;99.90;;;;;;5023357;28;20447;-79
2024/01/17 06:30:19;;;;;;;14.77;7.13;;;-5.20;99.90;;;;;;5041189;28;20104;-78
2024/01/17 06:32:45;;;;;;;11.05;5.78;;;-5.20;99.90;;;;;;5058753;28;20083;-78
2024/01/17 06:35:11;;;;;;;12.40;5.50;;;-5.20;99.90;;;;;;5060801;28;20074;-79
2024/01/17 06:37:37;;;;;;;9.45;5.20;;;-5.10;99.90;;;;;;5062238;28;20021;-79
2024/01/17 06:40:03;;;;;;;12.90;5.60;;;-5.10;99.90;;;;;;5061284;28;20055;-79
2024/01/17 06:42:28;;;;;;;10.10;5.70;;;-5.10;99.90;;;;;;5060413;28;20104;-79
2024/01/17 06:44:54;;;;;;;12.25;5.75;;;-5.10;99.90;;;;;;5059083;28;20037;-79
2024/01/17 06:47:20;;;;;;;10.65;5.95;;;-5.10;99.90;;;;;;5055159;28;20393;-79
2024/01/17 06:49:45;;;;;;;13.05;6.05;;;-5.10;99.90;;;;;;5058967;28;20025;-79
2024/01/17 06:52:11;;;;;;;10.63;5.15;;;-5.10;99.90;;;;;;5061009;28;20029;-79
2024/01/17 06:54:37;;;;;;;10.07;5.50;;;-5.10;99.90;;;;;;5058137;28;20031;-79
2024/01/17 06:57:03;;;;;;;10.38;5.97;;;-5.00;99.90;;;;;;5044105;28;20026;-79
2024/01/17 06:59:28;;;;;;;9.63;4.97;;;-5.00;99.90;;;;;;5036588;28;20060;-79
2024/01/17 07:01:54;;;;;;;16.75;7.75;;;-5.00;99.90;;;;;;5037975;28;20037;-79
2024/01/17 07:04:20;;;;;;;20.83;9.40;;;-5.00;99.90;;;;;;5038381;28;20034;-79
2024/01/17 07:06:46;;;;;;;26.90;13.32;;;-5.00;99.90;;;;;;5021335;28;20029;-79
2024/01/17 07:09:12;;;;;;;18.45;7.85;;;-5.00;99.90;;;;;;5024819;28;20408;-79
2024/01/17 07:11:38;;;;;;;24.38;10.75;;;-5.00;99.90;;;;;;5056651;28;20029;-79
2024/01/17 07:14:04;;;;;;;49.47;18.27;;;-5.00;99.90;;;;;;5057386;28;20391;-78
2024/01/17 07:16:29;;;;;;;41.22;17.17;;;-5.00;99.90;;;;;;5051489;28;20096;-79
2024/01/17 07:18:57;;;;;;;33.00;14.35;;;-5.00;99.90;;;;;;5057030;28;20079;-79
2024/01/17 07:21:23;;;;;;;30.70;11.85;;;-4.90;99.90;;;;;;5057157;28;20473;-79
2024/01/17 07:23:48;;;;;;;27.63;13.07;;;-4.90;99.90;;;;;;5057446;28;20041;-79
2024/01/17 07:26:14;;;;;;;21.33;9.77;;;-4.90;99.90;;;;;;5027317;28;20033;-79
2024/01/17 07:28:40;;;;;;;17.80;9.60;;;-4.90;99.90;;;;;;5039035;28;20025;-79
2024/01/17 07:31:06;;;;;;;16.63;8.60;;;-4.80;99.90;;;;;;5053997;28;20033;-78
2024/01/17 07:33:32;;;;;;;14.70;7.25;;;-4.80;99.90;;;;;;5037177;28;20485;-79
2024/01/17 07:35:57;;;;;;;11.65;5.63;;;-4.70;99.90;;;;;;5040078;28;20040;-80
2024/01/17 07:38:24;;;;;;;10.88;5.47;;;-4.70;99.90;;;;;;5055695;28;20025;-80
2024/01/17 07:40:50;;;;;;;10.88;5.70;;;-4.70;99.90;;;;;;5057769;28;20036;-79
2024/01/17 07:43:17;;;;;;;12.80;6.10;;;-4.70;99.90;;;;;;5058803;28;20025;-80
2024/01/17 07:45:42;;;;;;;16.52;8.73;;;-4.70;99.90;;;;;;5048312;28;20083;-80
2024/01/17 07:48:08;;;;;;;13.32;9.00;;;-4.60;99.90;;;;;;5036873;28;20033;-80
2024/01/17 07:50:37;;;;;;;18.02;8.57;;;-4.60;99.90;;;;;;5019769;28;20041;-80
2024/01/17 07:53:03;;;;;;;14.38;7.05;;;-4.50;99.90;;;;;;5035981;28;20394;-78
2024/01/17 07:55:28;;;;;;;11.95;7.32;;;-4.50;99.90;;;;;;5034846;28;20022;-79
2024/01/17 07:57:54;;;;;;;18.45;9.23;;;-4.40;99.90;;;;;;5054875;28;20530;-79
2024/01/17 08:00:20;;;;;;;13.05;7.30;;;-4.40;99.90;;;;;;5055359;28;20112;-79
2024/01/17 08:02:45;;;;;;;12.48;5.90;;;-4.30;99.90;;;;;;5054877;28;20033;-78
2024/01/17 08:05:12;;;;;;;9.85;5.85;;;-4.20;99.90;;;;;;5055650;28;20028;-79
2024/01/17 08:07:37;;;;;;;9.32;5.43;;;-4.20;99.90;;;;;;5054689;28;20025;-78
2024/01/17 08:10:03;;;;;;;13.73;7.90;;;-4.20;99.90;;;;;;5055565;28;20436;-79
2024/01/17 08:12:29;;;;;;;15.82;7.32;;;-4.10;99.90;;;;;;5054562;28;20558;-79
2024/01/17 08:14:55;;;;;;;15.18;10.63;;;-4.10;99.90;;;;;;5054173;28;20021;-79
2024/01/17 08:17:20;;;;;;;15.02;7.97;;;-4.10;99.90;;;;;;5047370;28;20520;-78
2024/01/17 08:19:46;;;;;;;12.35;6.75;;;-4.10;99.90;;;;;;5055773;28;20385;-78
2024/01/17 08:22:12;;;;;;;11.25;6.00;;;-4.00;99.90;;;;;;5038068;28;20401;-79
2024/01/17 08:24:40;;;;;;;10.95;6.10;;;-4.00;99.90;;;;;;5056158;28;20091;-79
2024/01/17 08:27:05;;;;;;;11.77;5.97;;;-4.00;99.90;;;;;;5043958;28;20381;-79
2024/01/17 08:29:31;;;;;;;13.60;5.50;;;-3.90;99.90;;;;;;5034744;28;20025;-79
2024/01/17 08:31:57;;;;;;;16.13;7.20;;;-3.90;99.90;;;;;;5044616;28;20374;-79
2024/01/17 08:34:22;;;;;;;25.35;12.30;;;-3.80;99.90;;;;;;5054639;28;20064;-79
2024/01/17 08:36:48;;;;;;;26.90;12.25;;;-3.80;99.90;;;;;;5054490;28;20112;-79
2024/01/17 08:39:15;;;;;;;28.00;12.35;;;-3.70;99.90;;;;;;5056416;28;20499;-79
2024/01/17 08:41:45;;;;;;;20.98;9.85;;;-3.70;99.90;;;;;;5055027;28;20401;-79
2024/01/17 08:44:11;;;;;;;21.20;10.35;;;-3.70;99.90;;;;;;5039955;28;20029;-79
2024/01/17 08:46:46;;;;;;;18.35;9.20;;;-3.60;99.90;;;;;;5047372;28;20041;-80
2024/01/17 08:49:14;;;;;;;15.90;8.13;;;-3.60;99.90;;;;;;5057054;28;20033;-78
2024/01/17 08:51:39;;;;;;;16.52;8.15;;;-3.50;99.90;;;;;;5056766;28;20052;-78
2024/01/17 08:54:05;;;;;;;21.65;10.05;;;-3.50;99.90;;;;;;5053263;28;20029;-78
2024/01/17 08:56:32;;;;;;;19.42;10.52;;;-3.50;99.90;;;;;;5049714;28;20112;-78
2024/01/17 08:58:58;;;;;;;21.92;10.63;;;-3.40;99.90;;;;;;5040188;28;20487;-78
2024/01/17 09:01:23;;;;;;;19.45;10.23;;;-3.40;99.90;;;;;;5044027;28;20056;-79
2024/01/17 09:03:49;;;;;;;15.50;8.50;;;-3.40;99.90;;;;;;5060267;28;20048;-79
2024/01/17 09:06:15;;;;;;;13.10;7.78;;;-3.40;99.90;;;;;;5058925;28;20028;-79
2024/01/17 09:08:40;;;;;;;15.35;8.82;;;-3.30;99.90;;;;;;5043845;28;20029;-78
2024/01/17 09:11:06;;;;;;;15.13;7.32;;;-3.20;99.90;;;;;;5042451;28;20056;-78
2024/01/17 09:13:32;;;;;;;12.98;7.28;;;-3.10;99.90;;;;;;5042733;28;20440;-78
2024/01/17 09:15:58;;;;;;;17.02;8.38;;;-3.10;99.90;;;;;;5045198;28;20465;-79
2024/01/17 09:18:23;;;;;;;17.17;7.68;;;-3.10;99.90;;;;;;5052122;28;20033;-79
2024/01/17 09:20:49;;;;;;;18.42;9.02;;;-3.10;99.90;;;;;;5044834;28;20390;-79
2024/01/17 09:23:15;;;;;;;15.90;8.70;;;-3.00;99.90;;;;;;5043117;28;20064;-80
2024/01/17 09:25:40;;;;;;;17.58;9.55;;;-3.00;99.90;;;;;;5026275;28;20033;-80
2024/01/17 09:28:06;;;;;;;20.17;10.20;;;-2.90;99.90;;;;;;5064149;28;20044;-79
2024/01/17 09:30:32;;;;;;;20.98;10.68;;;-2.90;99.90;;;;;;5064018;28;20029;-79
2024/01/17 09:32:57;;;;;;;20.80;10.45;;;-2.80;99.90;;;;;;5044550;28;20032;-79
2024/01/17 09:35:23;;;;;;;17.75;8.88;;;-2.80;99.90;;;;;;5044150;28;20022;-78
2024/01/17 09:37:49;;;;;;;19.88;10.13;;;-2.70;99.90;;;;;;5059405;28;20029;-79
2024/01/17 09:40:14;;;;;;;13.60;6.70;;;-2.70;99.90;;;;;;5062338;28;20426;-80
2024/01/17 09:42:41;;;;;;;10.70;5.80;;;-2.70;99.90;;;;;;5046161;28;20031;-80
2024/01/17 09:45:09;;;;;;;9.32;5.22;;;-2.70;99.90;;;;;;5041931;28;20053;-80
2024/01/17 09:47:36;;;;;;;12.45;5.53;;;-2.70;99.90;;;;;;5058216;28;20095;-79
2024/01/17 09:50:03;;;;;;;11.32;5.72;;;-2.70;99.90;;;;;;5062446;28;20045;-79
2024/01/17 09:52:32;;;;;;;12.13;6.22;;;-2.60;99.90;;;;;;5063450;28;20037;-79
2024/01/17 09:55:00;;;;;;;12.10;5.60;;;-2.60;99.90;;;;;;5062759;28;20041;-78
2024/01/17 09:57:29;;;;;;;10.52;5.13;;;-2.50;99.90;;;;;;5046359;28;20072;-79
2024/01/17 10:00:06;;;;;;;25.88;14.65;;;-2.50;99.90;;;;;;5037291;28;20076;-78
2024/01/17 10:02:35;;;;;;;38.35;25.95;;;-2.50;99.90;;;;;;5054038;28;20033;-79
2024/01/17 10:05:04;;;;;;;33.17;19.65;;;-2.50;99.90;;;;;;5058862;28;20036;-79
2024/01/17 10:07:29;;;;;;;25.85;16.75;;;-2.50;99.90;;;;;;5049314;28;20026;-79
2024/01/17 10:09:55;;;;;;;18.88;10.27;;;-2.50;99.90;;;;;;5021276;28;20056;-79
2024/01/17 10:12:21;;;;;;;13.27;7.43;;;-2.50;99.90;;;;;;5041930;28;20067;-79
2024/01/17 10:14:47;;;;;;;13.20;5.65;;;-2.50;99.90;;;;;;5040018;28;20025;-78
2024/01/17 10:17:12;;;;;;;11.32;5.50;;;-2.40;99.90;;;;;;5049109;28;20021;-78
2024/01/17 10:19:38;;;;;;;10.80;4.70;;;-2.50;99.90;;;;;;5056852;28;20481;-80
2024/01/17 10:22:06;;;;;;;11.25;5.78;;;-2.40;99.90;;;;;;5057278;28;20094;-78
2024/01/17 10:24:32;;;;;;;9.57;6.00;;;-2.40;99.90;;;;;;5057672;28;20025;-81
2024/01/17 10:27:02;;;;;;;11.60;6.47;;;-2.40;99.90;;;;;;5047993;28;20484;-78
2024/01/17 10:29:30;;;;;;;12.43;5.32;;;-2.30;99.90;;;;;;5037263;28;20091;-78
2024/01/17 10:32:02;;;;;;;8.90;5.00;;;-2.30;99.90;;;;;;5037646;28;20022;-78
2024/01/17 10:34:30;;;;;;;10.18;5.47;;;-2.20;99.90;;;;;;5037466;28;20030;-81
2024/01/17 10:36:56;;;;;;;11.35;4.97;;;-2.20;99.90;;;;;;5044858;28;20049;-81
2024/01/17 10:39:24;;;;;;;8.98;5.40;;;-2.10;99.90;;;;;;5036618;28;20029;-80
2024/01/17 10:41:59;;;;;;;15.73;8.07;;;-2.10;99.90;;;;;;5036892;28;20440;-80
2024/01/17 10:44:26;;;;;;;13.23;7.13;;;-2.10;99.90;;;;;;5038450;28;20056;-80
2024/01/17 10:46:53;;;;;;;9.52;6.72;;;-2.00;99.90;;;;;;5046198;28;20029;-80
2024/01/17 10:49:19;;;;;;;12.80;6.57;;;-2.00;99.90;;;;;;5058087;28;20032;-80
2024/01/17 10:52:03;;;;;;;14.23;7.03;;;-1.90;99.90;;;;;;5057003;28;20029;-80
2024/01/17 10:54:50;;;;;;;21.20;7.03;;;-1.90;99.90;;;;;;5058777;28;20035;-80
2024/01/17 10:57:16;;;;;;;21.38;8.85;;;-1.80;99.90;;;;;;5045304;28;20025;-80
2024/01/17 10:59:44;;;;;;;18.50;7.82;;;-1.80;99.90;;;;;;5037868;28;20051;-80
2024/01/17 11:02:20;;;;;;;14.98;7.10;;;-1.80;99.90;;;;;;5048663;28;20040;-79
2024/01/17 11:04:48;;;;;;;12.85;6.63;;;-1.70;99.90;;;;;;5059165;28;20027;-80
2024/01/17 11:07:16;;;;;;;12.80;6.80;;;-1.70;99.90;;;;;;5058010;28;20036;-77
2024/01/17 11:09:45;;;;;;;10.30;5.63;;;-1.70;99.90;;;;;;5059074;28;20049;-80
2024/01/17 11:12:14;;;;;;;9.07;5.07;;;-1.70;99.90;;;;;;5056742;28;20033;-80
2024/01/17 11:14:42;;;;;;;12.43;6.53;;;-1.70;99.90;;;;;;5051614;28;20079;-80
2024/01/17 11:17:09;;;;;;;11.40;4.68;;;-1.60;99.90;;;;;;5030733;28;20481;-80
2024/01/17 11:19:36;;;;;;;9.50;5.30;;;-1.70;99.90;;;;;;5056993;28;20439;-80
2024/01/17 11:22:02;;;;;;;11.57;5.47;;;-1.70;99.90;;;;;;5057016;28;20521;-80
2024/01/17 11:24:55;;;;;;;11.48;5.95;;;-1.60;99.90;;;;;;5057867;28;20029;-79
2024/01/17 11:27:54;;;;;;;19.92;10.93;;;-1.60;99.90;;;;;;5040859;28;20036;-80
2024/01/17 11:30:35;;;;;;;12.80;7.20;;;-1.60;99.90;;;;;;5036844;28;20030;-80
2024/01/17 11:33:07;;;;;;;11.52;6.38;;;-1.40;99.90;;;;;;5054261;28;20390;-79
2024/01/17 11:35:47;;;;;;;8.88;5.00;;;-1.30;99.90;;;;;;5056690;28;20104;-80
2024/01/17 11:38:18;;;;;;;8.82;4.93;;;-1.20;99.90;;;;;;5055498;28;20025;-79
2024/01/17 11:40:45;;;;;;;8.18;3.90;;;-1.00;99.90;;;;;;5055388;28;20082;-80
2024/01/17 11:43:13;;;;;;;7.90;4.45;;;-0.90;99.90;;;;;;5039288;28;20029;-80
2024/01/17 11:45:39;;;;;;;9.45;3.72;;;-0.80;99.90;;;;;;5049802;28;20040;-80
2024/01/17 11:48:15;;;;;;;8.30;3.90;;;-0.80;99.90;;;;;;5054171;28;20124;-80
2024/01/17 11:50:41;;;;;;;7.53;4.32;;;-0.70;99.90;;;;;;5055167;28;20028;-80
2024/01/17 11:53:07;;;;;;;10.98;6.03;;;-0.80;99.90;;;;;;5055477;28;20028;-80
2024/01/17 11:55:49;;;;;;;10.40;5.00;;;-0.70;99.90;;;;;;5057095;28;20526;-80
2024/01/17 11:58:16;;;;;;;21.80;9.18;;;-0.70;99.90;;;;;;5035988;28;20482;-80
2024/01/17 12:00:41;;;;;;;28.15;12.57;;;-0.70;99.90;;;;;;5036557;28;20059;-80
2024/01/17 12:03:07;;;;;;;10.52;5.30;;;-0.70;99.90;;;;;;5056158;28;20090;-80
2024/01/17 12:05:36;;;;;;;9.73;5.32;;;-0.70;99.90;;;;;;5046955;28;20022;-80
2024/01/17 12:08:05;;;;;;;10.02;4.82;;;-0.60;99.90;;;;;;5052998;28;20033;-80
2024/01/17 12:10:31;;;;;;;7.35;4.45;;;-0.60;99.90;;;;;;5054721;28;20028;-80
2024/01/17 12:12:59;;;;;;;9.80;4.65;;;-0.60;99.90;;;;;;5056138;28;20021;-80
2024/01/17 12:15:25;;;;;;;9.70;4.80;;;-0.50;99.90;;;;;;5050754;28;20040;-80
2024/01/17 12:17:51;;;;;;;8.07;4.25;;;-0.40;99.90;;;;;;5051447;28;20381;-80
2024/01/17 12:20:17;;;;;;;6.22;3.92;;;-0.40;99.90;;;;;;5055120;28;20051;-80
2024/01/17 12:22:51;;;;;;;7.72;4.25;;;-0.30;99.90;;;;;;5056669;28;20029;-80
2024/01/17 12:25:18;;;;;;;7.85;3.60;;;-0.30;99.90;;;;;;5055790;28;20029;-80
2024/01/17 12:27:52;;;;;;;6.65;3.60;;;-0.30;99.90;;;;;;5042158;28;20049;-80
2024/01/17 12:30:18;;;;;;;7.85;3.38;;;-0.20;99.90;;;;;;5036553;28;20034;-80
2024/01/17 12:32:44;;;;;;;8.15;4.00;;;-0.20;99.90;;;;;;5051557;28;20037;-80
2024/01/17 12:35:10;;;;;;;7.10;3.15;;;-0.20;99.90;;;;;;5056138;28;20063;-80
2024/01/17 12:37:37;;;;;;;7.47;3.20;;;-0.10;99.90;;;;;;5056719;28;20067;-79